sensor_id;sensor_type;location;lat;lon;timestamp;pressure;altitude;pressure_sealevel;temperature
68939;BMP180;59064;45.294;11.816;2023-08-24T00:01:17;101387.00;;;26.50
68939;BMP180;59064;45.294;11.816;2023-08-24T00:03:46;101385.80;;;26.50
68939;BMP180;59064;45.294;11.816;2023-08-24T00:06:13;101388.00;;;26.46
68939;BMP180;59064;45.294;11.816;2023-08-24T00:08:39;101380.40;;;26.50
68939;BMP180;59064;45.294;11.816;2023-08-24T00:11:04;101380.20;;;26.50
68939;BMP180;59064;45.294;11.816;2023-08-24T00:13:32;101384.60;;;26.50
68939;BMP180;59064;45.294;11.816;2023-08-24T00:15:57;101383.20;;;26.50
68939;BMP180;59064;45.294;11.816;2023-08-24T00:18:25;101382.60;;;26.50
68939;BMP180;59064;45.294;11.816;2023-08-24T00:20:50;101379.80;;;26.50
68939;BMP180;59064;45.294;11.816;2023-08-24T00:23:16;101384.60;;;26.50
68939;BMP180;59064;45.294;11.816;2023-08-24T00:25:42;101384.40;;;26.50
68939;BMP180;59064;45.294;11.816;2023-08-24T00:28:08;101390.80;;;26.40
68939;BMP180;59064;45.294;11.816;2023-08-24T00:30:34;101395.60;;;26.40
68939;BMP180;59064;45.294;11.816;2023-08-24T00:33:00;101397.20;;;26.30
68939;BMP180;59064;45.294;11.816;2023-08-24T00:35:25;101409.00;;;26.20
68939;BMP180;59064;45.294;11.816;2023-08-24T00:37:51;101413.60;;;26.10
68939;BMP180;59064;45.294;11.816;2023-08-24T00:40:17;101418.40;;;26.10
68939;BMP180;59064;45.294;11.816;2023-08-24T00:42:44;101418.00;;;26.10
68939;BMP180;59064;45.294;11.816;2023-08-24T00:45:14;101421.60;;;26.10
68939;BMP180;59064;45.294;11.816;2023-08-24T00:47:48;101421.80;;;26.10
68939;BMP180;59064;45.294;11.816;2023-08-24T00:50:17;101419.40;;;26.10
68939;BMP180;59064;45.294;11.816;2023-08-24T00:52:44;101414.80;;;26.16
68939;BMP180;59064;45.294;11.816;2023-08-24T00:55:10;101412.00;;;26.18
68939;BMP180;59064;45.294;11.816;2023-08-24T00:57:37;101411.80;;;26.10
68939;BMP180;59064;45.294;11.816;2023-08-24T01:00:06;101405.20;;;26.10
68939;BMP180;59064;45.294;11.816;2023-08-24T01:02:36;101406.20;;;26.00
68939;BMP180;59064;45.294;11.816;2023-08-24T01:05:01;101406.60;;;26.00
68939;BMP180;59064;45.294;11.816;2023-08-24T01:07:27;101400.00;;;26.00
68939;BMP180;59064;45.294;11.816;2023-08-24T01:09:53;101403.00;;;26.00
68939;BMP180;59064;45.294;11.816;2023-08-24T01:15:16;101401.40;;;25.90
68939;BMP180;59064;45.294;11.816;2023-08-24T01:17:44;101397.00;;;25.90
68939;BMP180;59064;45.294;11.816;2023-08-24T01:20:12;101392.40;;;25.90
68939;BMP180;59064;45.294;11.816;2023-08-24T01:26:17;101396.00;;;25.90
68939;BMP180;59064;45.294;11.816;2023-08-24T01:28:44;101389.00;;;25.90
68939;BMP180;59064;45.294;11.816;2023-08-24T01:31:10;101394.20;;;25.90
68939;BMP180;59064;45.294;11.816;2023-08-24T01:33:36;101393.00;;;25.86
68939;BMP180;59064;45.294;11.816;2023-08-24T01:36:02;101398.60;;;25.80
68939;BMP180;59064;45.294;11.816;2023-08-24T01:38:28;101395.20;;;25.80
68939;BMP180;59064;45.294;11.816;2023-08-24T01:41:20;101393.80;;;25.80
68939;BMP180;59064;45.294;11.816;2023-08-24T01:43:52;101393.60;;;25.80
68939;BMP180;59064;45.294;11.816;2023-08-24T01:46:22;101394.60;;;25.80
68939;BMP180;59064;45.294;11.816;2023-08-24T01:48:48;101391.60;;;25.80
68939;BMP180;59064;45.294;11.816;2023-08-24T01:51:15;101392.00;;;25.80
68939;BMP180;59064;45.294;11.816;2023-08-24T01:53:42;101390.20;;;25.80
68939;BMP180;59064;45.294;11.816;2023-08-24T01:56:12;101389.80;;;25.80
68939;BMP180;59064;45.294;11.816;2023-08-24T01:58:38;101390.00;;;25.80
68939;BMP180;59064;45.294;11.816;2023-08-24T02:01:08;101394.80;;;25.70
68939;BMP180;59064;45.294;11.816;2023-08-24T02:03:34;101398.20;;;25.70
68939;BMP180;59064;45.294;11.816;2023-08-24T02:06:00;101402.60;;;25.70
68939;BMP180;59064;45.294;11.816;2023-08-24T02:08:26;101400.80;;;25.70
68939;BMP180;59064;45.294;11.816;2023-08-24T02:10:51;101398.00;;;25.60
68939;BMP180;59064;45.294;11.816;2023-08-24T02:13:17;101396.20;;;25.60
68939;BMP180;59064;45.294;11.816;2023-08-24T02:15:43;101400.20;;;25.60
68939;BMP180;59064;45.294;11.816;2023-08-24T02:18:08;101397.60;;;25.60
68939;BMP180;59064;45.294;11.816;2023-08-24T02:20:38;101402.40;;;25.60
68939;BMP180;59064;45.294;11.816;2023-08-24T02:23:06;101401.00;;;25.56
68939;BMP180;59064;45.294;11.816;2023-08-24T02:25:32;101390.60;;;25.50
68939;BMP180;59064;45.294;11.816;2023-08-24T02:27:59;101391.40;;;25.50
68939;BMP180;59064;45.294;11.816;2023-08-24T02:30:24;101385.40;;;25.50
68939;BMP180;59064;45.294;11.816;2023-08-24T02:32:51;101380.80;;;25.50
68939;BMP180;59064;45.294;11.816;2023-08-24T02:35:17;101380.80;;;25.50
68939;BMP180;59064;45.294;11.816;2023-08-24T02:37:46;101376.00;;;25.44
68939;BMP180;59064;45.294;11.816;2023-08-24T02:40:12;101376.20;;;25.40
68939;BMP180;59064;45.294;11.816;2023-08-24T02:42:37;101374.00;;;25.40
68939;BMP180;59064;45.294;11.816;2023-08-24T02:45:03;101374.40;;;25.40
68939;BMP180;59064;45.294;11.816;2023-08-24T02:47:29;101374.60;;;25.40
68939;BMP180;59064;45.294;11.816;2023-08-24T02:49:55;101374.00;;;25.38
68939;BMP180;59064;45.294;11.816;2023-08-24T02:52:20;101373.00;;;25.30
68939;BMP180;59064;45.294;11.816;2023-08-24T02:54:46;101374.40;;;25.30
68939;BMP180;59064;45.294;11.816;2023-08-24T02:57:11;101375.60;;;25.30
68939;BMP180;59064;45.294;11.816;2023-08-24T02:59:37;101367.60;;;25.24
68939;BMP180;59064;45.294;11.816;2023-08-24T03:02:02;101371.00;;;25.30
68939;BMP180;59064;45.294;11.816;2023-08-24T03:04:29;101365.40;;;25.30
68939;BMP180;59064;45.294;11.816;2023-08-24T03:06:55;101365.40;;;25.30
68939;BMP180;59064;45.294;11.816;2023-08-24T03:09:22;101362.00;;;25.30
68939;BMP180;59064;45.294;11.816;2023-08-24T03:11:47;101362.80;;;25.26
68939;BMP180;59064;45.294;11.816;2023-08-24T03:14:13;101365.20;;;25.20
68939;BMP180;59064;45.294;11.816;2023-08-24T03:16:39;101364.80;;;25.20
68939;BMP180;59064;45.294;11.816;2023-08-24T03:19:04;101364.00;;;25.20
68939;BMP180;59064;45.294;11.816;2023-08-24T03:21:30;101353.60;;;25.20
68939;BMP180;59064;45.294;11.816;2023-08-24T03:23:56;101354.40;;;25.20
68939;BMP180;59064;45.294;11.816;2023-08-24T03:26:21;101350.00;;;25.20
68939;BMP180;59064;45.294;11.816;2023-08-24T03:28:49;101351.40;;;25.20
68939;BMP180;59064;45.294;11.816;2023-08-24T03:31:15;101344.80;;;25.16
68939;BMP180;59064;45.294;11.816;2023-08-24T03:33:41;101346.40;;;25.10
68939;BMP180;59064;45.294;11.816;2023-08-24T03:36:06;101345.00;;;25.10
68939;BMP180;59064;45.294;11.816;2023-08-24T03:38:32;101344.00;;;25.20
68939;BMP180;59064;45.294;11.816;2023-08-24T03:41:04;101343.00;;;25.20
68939;BMP180;59064;45.294;11.816;2023-08-24T03:43:35;101346.00;;;25.20
68939;BMP180;59064;45.294;11.816;2023-08-24T03:46:03;101346.00;;;25.10
68939;BMP180;59064;45.294;11.816;2023-08-24T03:48:33;101349.00;;;25.10
68939;BMP180;59064;45.294;11.816;2023-08-24T03:50:58;101352.80;;;25.10
68939;BMP180;59064;45.294;11.816;2023-08-24T03:53:24;101354.60;;;25.10
68939;BMP180;59064;45.294;11.816;2023-08-24T03:55:52;101354.80;;;25.08
68939;BMP180;59064;45.294;11.816;2023-08-24T03:58:18;101356.20;;;25.10
68939;BMP180;59064;45.294;11.816;2023-08-24T04:00:44;101360.80;;;25.10
68939;BMP180;59064;45.294;11.816;2023-08-24T04:03:10;101356.40;;;25.10
68939;BMP180;59064;45.294;11.816;2023-08-24T04:05:36;101358.40;;;25.18
68939;BMP180;59064;45.294;11.816;2023-08-24T04:08:02;101355.20;;;25.20
68939;BMP180;59064;45.294;11.816;2023-08-24T04:10:29;101360.40;;;25.30
68939;BMP180;59064;45.294;11.816;2023-08-24T04:12:55;101355.80;;;25.30
68939;BMP180;59064;45.294;11.816;2023-08-24T04:15:21;101359.40;;;25.40
68939;BMP180;59064;45.294;11.816;2023-08-24T04:17:48;101359.20;;;25.40
68939;BMP180;59064;45.294;11.816;2023-08-24T04:20:14;101365.20;;;25.40
68939;BMP180;59064;45.294;11.816;2023-08-24T04:22:42;101366.60;;;25.40
68939;BMP180;59064;45.294;11.816;2023-08-24T04:25:08;101365.60;;;25.40
68939;BMP180;59064;45.294;11.816;2023-08-24T04:27:36;101367.60;;;25.40
68939;BMP180;59064;45.294;11.816;2023-08-24T04:30:02;101368.20;;;25.40
68939;BMP180;59064;45.294;11.816;2023-08-24T04:32:28;101369.20;;;25.40
68939;BMP180;59064;45.294;11.816;2023-08-24T04:34:54;101369.80;;;25.40
68939;BMP180;59064;45.294;11.816;2023-08-24T04:37:20;101372.80;;;25.40
68939;BMP180;59064;45.294;11.816;2023-08-24T04:39:46;101371.00;;;25.40
68939;BMP180;59064;45.294;11.816;2023-08-24T04:42:11;101370.00;;;25.50
68939;BMP180;59064;45.294;11.816;2023-08-24T04:44:37;101370.80;;;25.50
68939;BMP180;59064;45.294;11.816;2023-08-24T04:47:03;101371.60;;;25.52
68939;BMP180;59064;45.294;11.816;2023-08-24T04:49:30;101370.40;;;25.58
68939;BMP180;59064;45.294;11.816;2023-08-24T04:51:56;101371.60;;;25.60
68939;BMP180;59064;45.294;11.816;2023-08-24T04:54:22;101373.00;;;25.60
68939;BMP180;59064;45.294;11.816;2023-08-24T04:56:47;101368.40;;;25.60
68939;BMP180;59064;45.294;11.816;2023-08-24T04:59:13;101371.20;;;25.70
68939;BMP180;59064;45.294;11.816;2023-08-24T05:01:39;101374.00;;;25.70
68939;BMP180;59064;45.294;11.816;2023-08-24T05:04:05;101383.40;;;25.76
68939;BMP180;59064;45.294;11.816;2023-08-24T05:06:30;101386.60;;;25.80
68939;BMP180;59064;45.294;11.816;2023-08-24T05:08:56;101390.20;;;25.88
68939;BMP180;59064;45.294;11.816;2023-08-24T05:11:27;101389.60;;;25.90
68939;BMP180;59064;45.294;11.816;2023-08-24T05:13:56;101386.00;;;26.00
68939;BMP180;59064;45.294;11.816;2023-08-24T05:16:22;101390.00;;;26.00
68939;BMP180;59064;45.294;11.816;2023-08-24T05:18:48;101387.80;;;26.10
68939;BMP180;59064;45.294;11.816;2023-08-24T05:21:13;101389.40;;;26.20
68939;BMP180;59064;45.294;11.816;2023-08-24T05:23:39;101395.60;;;26.30
68939;BMP180;59064;45.294;11.816;2023-08-24T05:26:05;101393.20;;;26.40
68939;BMP180;59064;45.294;11.816;2023-08-24T05:28:31;101392.40;;;26.50
68939;BMP180;59064;45.294;11.816;2023-08-24T05:30:57;101396.80;;;26.54
68939;BMP180;59064;45.294;11.816;2023-08-24T05:33:25;101396.20;;;26.68
68939;BMP180;59064;45.294;11.816;2023-08-24T05:35:51;101398.00;;;26.76
68939;BMP180;59064;45.294;11.816;2023-08-24T05:38:18;101404.40;;;26.82
68939;BMP180;59064;45.294;11.816;2023-08-24T05:40:47;101405.80;;;27.00
68939;BMP180;59064;45.294;11.816;2023-08-24T05:43:13;101411.60;;;27.10
68939;BMP180;59064;45.294;11.816;2023-08-24T05:45:39;101407.80;;;27.20
68939;BMP180;59064;45.294;11.816;2023-08-24T05:48:06;101406.20;;;27.30
68939;BMP180;59064;45.294;11.816;2023-08-24T05:50:33;101414.00;;;27.40
68939;BMP180;59064;45.294;11.816;2023-08-24T05:52:58;101411.80;;;27.50
68939;BMP180;59064;45.294;11.816;2023-08-24T05:55:24;101414.80;;;27.60
68939;BMP180;59064;45.294;11.816;2023-08-24T05:57:49;101417.00;;;27.64
68939;BMP180;59064;45.294;11.816;2023-08-24T06:00:15;101416.00;;;27.70
68939;BMP180;59064;45.294;11.816;2023-08-24T06:02:41;101414.80;;;27.80
68939;BMP180;59064;45.294;11.816;2023-08-24T06:05:07;101416.00;;;27.90
68939;BMP180;59064;45.294;11.816;2023-08-24T06:07:34;101414.20;;;28.04
68939;BMP180;59064;45.294;11.816;2023-08-24T06:10:00;101415.00;;;28.10
68939;BMP180;59064;45.294;11.816;2023-08-24T06:12:26;101412.00;;;28.20
68939;BMP180;59064;45.294;11.816;2023-08-24T06:14:51;101410.40;;;28.30
68939;BMP180;59064;45.294;11.816;2023-08-24T06:17:17;101409.20;;;28.32
68939;BMP180;59064;45.294;11.816;2023-08-24T06:19:43;101412.00;;;28.40
68939;BMP180;59064;45.294;11.816;2023-08-24T06:22:08;101413.40;;;28.40
68939;BMP180;59064;45.294;11.816;2023-08-24T06:24:35;101416.00;;;28.40
68939;BMP180;59064;45.294;11.816;2023-08-24T06:27:01;101417.80;;;28.44
68939;BMP180;59064;45.294;11.816;2023-08-24T06:29:30;101418.80;;;28.50
68939;BMP180;59064;45.294;11.816;2023-08-24T06:31:56;101420.00;;;28.50
68939;BMP180;59064;45.294;11.816;2023-08-24T06:34:22;101421.00;;;28.58
68939;BMP180;59064;45.294;11.816;2023-08-24T06:36:47;101424.20;;;28.60
68939;BMP180;59064;45.294;11.816;2023-08-24T06:39:13;101425.60;;;28.74
68939;BMP180;59064;45.294;11.816;2023-08-24T06:41:39;101425.80;;;28.80
68939;BMP180;59064;45.294;11.816;2023-08-24T06:44:05;101425.00;;;28.90
68939;BMP180;59064;45.294;11.816;2023-08-24T06:46:31;101423.00;;;28.90
68939;BMP180;59064;45.294;11.816;2023-08-24T06:48:56;101425.60;;;28.98
68939;BMP180;59064;45.294;11.816;2023-08-24T06:51:22;101423.40;;;29.10
68939;BMP180;59064;45.294;11.816;2023-08-24T06:53:48;101424.60;;;29.20
68939;BMP180;59064;45.294;11.816;2023-08-24T06:56:14;101421.20;;;29.30
68939;BMP180;59064;45.294;11.816;2023-08-24T06:58:47;101424.80;;;29.40
68939;BMP180;59064;45.294;11.816;2023-08-24T07:01:13;101423.80;;;29.50
68939;BMP180;59064;45.294;11.816;2023-08-24T07:03:39;101424.20;;;29.60
68939;BMP180;59064;45.294;11.816;2023-08-24T07:06:07;101426.80;;;29.68
68939;BMP180;59064;45.294;11.816;2023-08-24T07:08:34;101423.20;;;29.80
68939;BMP180;59064;45.294;11.816;2023-08-24T07:11:01;101424.80;;;29.90
68939;BMP180;59064;45.294;11.816;2023-08-24T07:13:28;101425.80;;;30.00
68939;BMP180;59064;45.294;11.816;2023-08-24T07:15:53;101422.60;;;30.10
68939;BMP180;59064;45.294;11.816;2023-08-24T07:18:21;101428.40;;;30.20
68939;BMP180;59064;45.294;11.816;2023-08-24T07:20:47;101428.00;;;30.30
68939;BMP180;59064;45.294;11.816;2023-08-24T07:23:12;101427.60;;;30.40
68939;BMP180;59064;45.294;11.816;2023-08-24T07:25:38;101428.80;;;30.50
68939;BMP180;59064;45.294;11.816;2023-08-24T07:28:04;101432.20;;;30.60
68939;BMP180;59064;45.294;11.816;2023-08-24T07:30:32;101432.40;;;30.76
68939;BMP180;59064;45.294;11.816;2023-08-24T07:32:57;101432.00;;;30.82
68939;BMP180;59064;45.294;11.816;2023-08-24T07:35:23;101429.60;;;30.92
68939;BMP180;59064;45.294;11.816;2023-08-24T07:37:53;101433.20;;;30.98
68939;BMP180;59064;45.294;11.816;2023-08-24T07:40:19;101435.20;;;31.00
68939;BMP180;59064;45.294;11.816;2023-08-24T07:42:50;101433.40;;;31.10
68939;BMP180;59064;45.294;11.816;2023-08-24T07:45:18;101439.40;;;31.30
68939;BMP180;59064;45.294;11.816;2023-08-24T07:47:45;101441.00;;;31.50
68939;BMP180;59064;45.294;11.816;2023-08-24T07:50:11;101437.60;;;31.60
68939;BMP180;59064;45.294;11.816;2023-08-24T07:52:38;101437.00;;;31.70
68939;BMP180;59064;45.294;11.816;2023-08-24T07:55:08;101444.80;;;31.80
68939;BMP180;59064;45.294;11.816;2023-08-24T07:57:35;101443.40;;;31.90
68939;BMP180;59064;45.294;11.816;2023-08-24T08:00:05;101440.80;;;32.06
68939;BMP180;59064;45.294;11.816;2023-08-24T08:02:31;101445.40;;;32.20
68939;BMP180;59064;45.294;11.816;2023-08-24T08:04:58;101450.80;;;32.30
68939;BMP180;59064;45.294;11.816;2023-08-24T08:07:26;101454.20;;;32.38
68939;BMP180;59064;45.294;11.816;2023-08-24T08:09:52;101454.80;;;32.40
68939;BMP180;59064;45.294;11.816;2023-08-24T08:12:17;101458.60;;;32.62
68939;BMP180;59064;45.294;11.816;2023-08-24T08:14:43;101463.60;;;32.88
68939;BMP180;59064;45.294;11.816;2023-08-24T08:17:09;101463.60;;;33.10
68939;BMP180;59064;45.294;11.816;2023-08-24T08:19:34;101467.60;;;33.30
68939;BMP180;59064;45.294;11.816;2023-08-24T08:22:06;101465.40;;;33.58
68939;BMP180;59064;45.294;11.816;2023-08-24T08:24:31;101464.40;;;33.80
68939;BMP180;59064;45.294;11.816;2023-08-24T08:26:57;101458.60;;;33.90
68939;BMP180;59064;45.294;11.816;2023-08-24T08:29:23;101449.00;;;33.80
68939;BMP180;59064;45.294;11.816;2023-08-24T08:31:49;101448.40;;;33.90
68939;BMP180;59064;45.294;11.816;2023-08-24T08:34:17;101447.40;;;33.80
68939;BMP180;59064;45.294;11.816;2023-08-24T08:36:45;101452.80;;;33.80
68939;BMP180;59064;45.294;11.816;2023-08-24T08:39:11;101452.40;;;33.90
68939;BMP180;59064;45.294;11.816;2023-08-24T08:41:43;101456.80;;;34.18
68939;BMP180;59064;45.294;11.816;2023-08-24T08:44:14;101449.80;;;34.22
68939;BMP180;59064;45.294;11.816;2023-08-24T08:46:46;101445.40;;;34.56
68939;BMP180;59064;45.294;11.816;2023-08-24T08:49:13;101447.80;;;34.68
68939;BMP180;59064;45.294;11.816;2023-08-24T08:51:41;101453.20;;;34.90
68939;BMP180;59064;45.294;11.816;2023-08-24T08:54:11;101454.80;;;35.20
68939;BMP180;59064;45.294;11.816;2023-08-24T08:56:37;101452.60;;;35.26
68939;BMP180;59064;45.294;11.816;2023-08-24T08:59:04;101447.20;;;35.10
68939;BMP180;59064;45.294;11.816;2023-08-24T09:01:32;101446.00;;;35.10
68939;BMP180;59064;45.294;11.816;2023-08-24T09:03:57;101447.40;;;35.30
68939;BMP180;59064;45.294;11.816;2023-08-24T09:06:23;101448.80;;;35.34
68939;BMP180;59064;45.294;11.816;2023-08-24T09:08:50;101451.60;;;35.40
68939;BMP180;59064;45.294;11.816;2023-08-24T09:11:17;101449.60;;;35.30
68939;BMP180;59064;45.294;11.816;2023-08-24T09:13:45;101451.00;;;35.40
68939;BMP180;59064;45.294;11.816;2023-08-24T09:16:11;101451.80;;;35.72
68939;BMP180;59064;45.294;11.816;2023-08-24T09:18:45;101455.80;;;35.98
68939;BMP180;59064;45.294;11.816;2023-08-24T09:21:13;101453.60;;;36.10
68939;BMP180;59064;45.294;11.816;2023-08-24T09:23:56;101451.20;;;36.16
68939;BMP180;59064;45.294;11.816;2023-08-24T09:26:35;101449.20;;;36.48
68939;BMP180;59064;45.294;11.816;2023-08-24T09:29:15;101450.00;;;36.40
68939;BMP180;59064;45.294;11.816;2023-08-24T09:31:42;101448.60;;;36.30
68939;BMP180;59064;45.294;11.816;2023-08-24T09:34:11;101451.60;;;36.30
68939;BMP180;59064;45.294;11.816;2023-08-24T09:36:38;101450.80;;;36.60
68939;BMP180;59064;45.294;11.816;2023-08-24T09:39:05;101447.60;;;37.04
68939;BMP180;59064;45.294;11.816;2023-08-24T09:41:48;101439.80;;;37.30
68939;BMP180;59064;45.294;11.816;2023-08-24T09:44:14;101436.80;;;37.20
68939;BMP180;59064;45.294;11.816;2023-08-24T09:46:40;101436.00;;;37.00
68939;BMP180;59064;45.294;11.816;2023-08-24T09:49:08;101429.60;;;37.20
68939;BMP180;59064;45.294;11.816;2023-08-24T09:51:39;101430.00;;;37.30
68939;BMP180;59064;45.294;11.816;2023-08-24T09:54:08;101429.20;;;37.10
68939;BMP180;59064;45.294;11.816;2023-08-24T09:56:41;101428.00;;;37.04
68939;BMP180;59064;45.294;11.816;2023-08-24T09:59:15;101429.60;;;37.30
68939;BMP180;59064;45.294;11.816;2023-08-24T10:01:47;101426.40;;;37.50
68939;BMP180;59064;45.294;11.816;2023-08-24T10:04:17;101423.40;;;37.72
68939;BMP180;59064;45.294;11.816;2023-08-24T10:06:49;101420.40;;;37.60
68939;BMP180;59064;45.294;11.816;2023-08-24T10:09:24;101416.60;;;37.44
68939;BMP180;59064;45.294;11.816;2023-08-24T10:11:56;101414.60;;;37.40
68939;BMP180;59064;45.294;11.816;2023-08-24T10:17:04;101414.40;;;37.70
68939;BMP180;59064;45.294;11.816;2023-08-24T10:19:31;101413.60;;;38.06
68939;BMP180;59064;45.294;11.816;2023-08-24T10:21:59;101411.40;;;38.36
68939;BMP180;59064;45.294;11.816;2023-08-24T10:24:26;101408.60;;;38.50
68939;BMP180;59064;45.294;11.816;2023-08-24T10:26:52;101411.00;;;38.44
68939;BMP180;59064;45.294;11.816;2023-08-24T10:29:20;101410.00;;;38.70
68939;BMP180;59064;45.294;11.816;2023-08-24T10:31:48;101409.80;;;38.78
68939;BMP180;59064;45.294;11.816;2023-08-24T10:34:14;101406.00;;;38.88
68939;BMP180;59064;45.294;11.816;2023-08-24T10:36:41;101403.80;;;38.90
68939;BMP180;59064;45.294;11.816;2023-08-24T10:39:07;101404.00;;;38.90
68939;BMP180;59064;45.294;11.816;2023-08-24T10:41:51;101397.20;;;38.70
68939;BMP180;59064;45.294;11.816;2023-08-24T10:44:37;101399.60;;;38.80
68939;BMP180;59064;45.294;11.816;2023-08-24T10:49:44;101397.00;;;39.32
68939;BMP180;59064;45.294;11.816;2023-08-24T10:52:36;101391.20;;;38.92
68939;BMP180;59064;45.294;11.816;2023-08-24T10:55:25;101391.60;;;38.58
68939;BMP180;59064;45.294;11.816;2023-08-24T10:57:59;101390.40;;;38.50
68939;BMP180;59064;45.294;11.816;2023-08-24T11:00:29;101386.60;;;38.60
68939;BMP180;59064;45.294;11.816;2023-08-24T11:02:56;101387.20;;;38.52
68939;BMP180;59064;45.294;11.816;2023-08-24T11:08:01;101392.60;;;38.86
68939;BMP180;59064;45.294;11.816;2023-08-24T11:13:18;101387.80;;;38.86
68939;BMP180;59064;45.294;11.816;2023-08-24T11:15:50;101390.20;;;39.00
68939;BMP180;59064;45.294;11.816;2023-08-24T11:20:56;101382.60;;;39.10
68939;BMP180;59064;45.294;11.816;2023-08-24T11:23:24;101379.60;;;39.18
68939;BMP180;59064;45.294;11.816;2023-08-24T11:25:53;101379.00;;;39.30
68939;BMP180;59064;45.294;11.816;2023-08-24T11:28:25;101378.80;;;39.70
68939;BMP180;59064;45.294;11.816;2023-08-24T11:30:54;101378.20;;;40.16
68939;BMP180;59064;45.294;11.816;2023-08-24T11:33:31;101372.60;;;40.20
68939;BMP180;59064;45.294;11.816;2023-08-24T11:35:58;101372.80;;;40.32
68939;BMP180;59064;45.294;11.816;2023-08-24T11:38:24;101370.80;;;40.60
68939;BMP180;59064;45.294;11.816;2023-08-24T11:40:50;101365.60;;;40.82
68939;BMP180;59064;45.294;11.816;2023-08-24T11:43:25;101369.20;;;41.00
68939;BMP180;59064;45.294;11.816;2023-08-24T11:45:55;101369.20;;;41.16
68939;BMP180;59064;45.294;11.816;2023-08-24T11:48:25;101368.60;;;41.36
68939;BMP180;59064;45.294;11.816;2023-08-24T11:50:55;101371.80;;;41.10
68939;BMP180;59064;45.294;11.816;2023-08-24T11:53:22;101368.00;;;40.80
68939;BMP180;59064;45.294;11.816;2023-08-24T11:55:52;101368.00;;;40.80
68939;BMP180;59064;45.294;11.816;2023-08-24T11:58:18;101366.00;;;41.10
68939;BMP180;59064;45.294;11.816;2023-08-24T12:00:45;101360.00;;;41.30
68939;BMP180;59064;45.294;11.816;2023-08-24T12:03:12;101361.80;;;41.20
68939;BMP180;59064;45.294;11.816;2023-08-24T12:05:38;101361.60;;;41.20
68939;BMP180;59064;45.294;11.816;2023-08-24T12:08:04;101358.40;;;41.20
68939;BMP180;59064;45.294;11.816;2023-08-24T12:10:30;101353.80;;;41.28
68939;BMP180;59064;45.294;11.816;2023-08-24T12:13:06;101347.20;;;41.30
68939;BMP180;59064;45.294;11.816;2023-08-24T12:15:36;101347.60;;;41.40
68939;BMP180;59064;45.294;11.816;2023-08-24T12:18:09;101346.00;;;41.70
68939;BMP180;59064;45.294;11.816;2023-08-24T12:20:35;101342.80;;;41.82
68939;BMP180;59064;45.294;11.816;2023-08-24T12:23:01;101338.40;;;41.50
68939;BMP180;59064;45.294;11.816;2023-08-24T12:25:26;101339.00;;;41.40
68939;BMP180;59064;45.294;11.816;2023-08-24T12:28:07;101331.80;;;41.30
68939;BMP180;59064;45.294;11.816;2023-08-24T12:30:50;101330.00;;;41.30
68939;BMP180;59064;45.294;11.816;2023-08-24T12:33:28;101327.40;;;41.40
68939;BMP180;59064;45.294;11.816;2023-08-24T12:35:55;101318.60;;;41.64
68939;BMP180;59064;45.294;11.816;2023-08-24T12:38:24;101318.40;;;41.58
68939;BMP180;59064;45.294;11.816;2023-08-24T12:40:50;101312.80;;;41.50
68939;BMP180;59064;45.294;11.816;2023-08-24T12:43:16;101309.80;;;41.52
68939;BMP180;59064;45.294;11.816;2023-08-24T12:45:42;101307.60;;;41.40
68939;BMP180;59064;45.294;11.816;2023-08-24T12:48:09;101305.20;;;41.74
68939;BMP180;59064;45.294;11.816;2023-08-24T12:50:37;101298.80;;;41.66
68939;BMP180;59064;45.294;11.816;2023-08-24T12:53:03;101296.40;;;41.50
68939;BMP180;59064;45.294;11.816;2023-08-24T12:55:32;101292.20;;;41.70
68939;BMP180;59064;45.294;11.816;2023-08-24T12:57:59;101284.40;;;41.90
68939;BMP180;59064;45.294;11.816;2023-08-24T13:00:24;101286.60;;;42.18
68939;BMP180;59064;45.294;11.816;2023-08-24T13:02:52;101284.80;;;42.20
68939;BMP180;59064;45.294;11.816;2023-08-24T13:05:17;101286.20;;;42.20
68939;BMP180;59064;45.294;11.816;2023-08-24T13:07:43;101286.20;;;42.08
68939;BMP180;59064;45.294;11.816;2023-08-24T13:10:09;101282.60;;;42.06
68939;BMP180;59064;45.294;11.816;2023-08-24T13:12:35;101285.80;;;42.30
68939;BMP180;59064;45.294;11.816;2023-08-24T13:15:02;101277.80;;;42.50
68939;BMP180;59064;45.294;11.816;2023-08-24T13:17:30;101275.00;;;42.66
68939;BMP180;59064;45.294;11.816;2023-08-24T13:19:56;101278.60;;;43.04
68939;BMP180;59064;45.294;11.816;2023-08-24T13:22:22;101278.00;;;43.10
68939;BMP180;59064;45.294;11.816;2023-08-24T13:24:48;101278.40;;;42.98
68939;BMP180;59064;45.294;11.816;2023-08-24T13:27:14;101277.20;;;42.90
68939;BMP180;59064;45.294;11.816;2023-08-24T13:29:42;101273.60;;;43.00
68939;BMP180;59064;45.294;11.816;2023-08-24T13:32:08;101271.20;;;42.90
68939;BMP180;59064;45.294;11.816;2023-08-24T13:34:34;101263.40;;;43.00
68939;BMP180;59064;45.294;11.816;2023-08-24T13:37:00;101265.40;;;43.10
68939;BMP180;59064;45.294;11.816;2023-08-24T13:39:26;101264.20;;;43.36
68939;BMP180;59064;45.294;11.816;2023-08-24T13:41:56;101255.20;;;43.82
68939;BMP180;59064;45.294;11.816;2023-08-24T13:44:22;101256.00;;;44.20
68939;BMP180;59064;45.294;11.816;2023-08-24T13:46:48;101254.00;;;44.40
68939;BMP180;59064;45.294;11.816;2023-08-24T13:49:14;101255.40;;;44.52
68939;BMP180;59064;45.294;11.816;2023-08-24T13:51:39;101256.40;;;44.40
68939;BMP180;59064;45.294;11.816;2023-08-24T13:54:19;101260.40;;;44.30
68939;BMP180;59064;45.294;11.816;2023-08-24T13:56:48;101257.40;;;44.06
68939;BMP180;59064;45.294;11.816;2023-08-24T13:59:15;101256.60;;;44.04
68939;BMP180;59064;45.294;11.816;2023-08-24T14:01:41;101252.60;;;44.40
68939;BMP180;59064;45.294;11.816;2023-08-24T14:04:07;101252.80;;;44.40
68939;BMP180;59064;45.294;11.816;2023-08-24T14:06:34;101249.20;;;44.30